createdAt,value
2018-12-04T00:00:36.997Z,5.70
2018-12-04T00:03:07.049Z,5.70
2018-12-04T00:05:37.079Z,5.70
2018-12-04T00:08:06.167Z,5.70
2018-12-04T00:10:36.538Z,5.70
2018-12-04T00:13:06.876Z,5.80
2018-12-04T00:15:36.154Z,5.80
2018-12-04T00:18:05.737Z,5.80
2018-12-04T00:20:35.225Z,5.80
2018-12-04T00:23:10.476Z,5.80
2018-12-04T00:25:40.663Z,5.80
2018-12-04T00:28:16.034Z,5.80
2018-12-04T00:30:45.710Z,5.80
2018-12-04T00:33:20.590Z,5.80
2018-12-04T00:39:20.656Z,5.90
2018-12-04T00:41:49.375Z,5.90
2018-12-04T00:44:18.075Z,5.90
2018-12-04T00:46:46.847Z,5.90
2018-12-04T00:49:15.437Z,5.90
2018-12-04T00:51:44.025Z,5.90
2018-12-04T00:54:13.416Z,5.90
2018-12-04T00:56:42.613Z,5.80
2018-12-04T00:59:12.893Z,5.90
2018-12-04T01:01:43.028Z,5.90
2018-12-04T01:04:12.688Z,5.90
2018-12-04T01:06:41.815Z,5.80
2018-12-04T01:09:11.597Z,5.90
2018-12-04T01:11:40.554Z,5.90
2018-12-04T01:14:09.320Z,5.90
2018-12-04T01:16:37.973Z,5.90
2018-12-04T01:19:08.568Z,5.80
2018-12-04T01:21:37.200Z,5.80
2018-12-04T01:24:05.775Z,5.80
2018-12-04T01:26:34.729Z,5.80
2018-12-04T01:29:07.626Z,5.80
2018-12-04T01:31:36.291Z,5.80
2018-12-04T01:34:05.120Z,5.80
2018-12-04T01:36:34.353Z,5.90
2018-12-04T01:39:03.994Z,5.90
2018-12-04T01:41:32.528Z,5.80
2018-12-04T01:44:01.183Z,5.80
2018-12-04T01:46:30.019Z,5.80
2018-12-04T01:48:59.614Z,5.80
2018-12-04T01:51:28.273Z,5.90
2018-12-04T01:53:57.865Z,5.90
2018-12-04T01:56:26.449Z,5.80
2018-12-04T01:58:55.157Z,5.80
2018-12-04T02:01:23.689Z,5.80
2018-12-04T02:03:52.488Z,5.80
2018-12-04T02:06:21.093Z,5.80
2018-12-04T02:08:50.075Z,5.90
2018-12-04T02:11:19.892Z,5.90
2018-12-04T02:13:48.599Z,5.90
2018-12-04T02:16:17.145Z,5.80
2018-12-04T02:18:46.821Z,5.80
2018-12-04T02:21:15.300Z,5.80
2018-12-04T02:23:43.860Z,5.80
2018-12-04T02:26:13.527Z,5.80
2018-12-04T02:28:43.265Z,5.80
2018-12-04T02:31:12.878Z,5.80
2018-12-04T02:33:41.952Z,5.80
2018-12-04T02:36:10.511Z,5.80
2018-12-04T02:38:39.086Z,5.90
2018-12-04T02:41:07.699Z,5.90
2018-12-04T02:43:36.433Z,5.90
2018-12-04T02:46:04.936Z,6.00
2018-12-04T02:48:34.104Z,6.00
2018-12-04T02:51:02.647Z,6.00
2018-12-04T02:53:31.195Z,6.00
2018-12-04T02:55:59.849Z,5.90
2018-12-04T02:58:28.463Z,5.90
2018-12-04T03:00:57.047Z,5.90
2018-12-04T03:03:25.566Z,5.80
2018-12-04T03:05:57.086Z,5.80
2018-12-04T03:08:27.326Z,5.80
2018-12-04T03:10:56.038Z,5.80
2018-12-04T03:13:24.572Z,5.80
2018-12-04T03:15:53.116Z,5.80
2018-12-04T03:18:21.636Z,5.80
2018-12-04T03:20:50.454Z,5.80
2018-12-04T03:23:19.602Z,5.80
2018-12-04T03:25:48.336Z,5.80
2018-12-04T03:28:17.535Z,5.80
2018-12-04T03:30:46.140Z,5.90
2018-12-04T03:33:25.534Z,5.90
2018-12-04T03:35:54.068Z,5.90
2018-12-04T03:38:22.561Z,5.90
2018-12-04T03:40:53.515Z,5.90
2018-12-04T03:43:23.032Z,5.90
2018-12-04T03:46:02.156Z,5.90
2018-12-04T03:48:31.294Z,5.90
2018-12-04T03:51:02.594Z,5.90
2018-12-04T03:53:31.839Z,5.90
2018-12-04T03:56:05.289Z,5.90
2018-12-04T03:58:34.968Z,5.90
2018-12-04T04:01:08.685Z,5.90
2018-12-04T04:03:38.744Z,5.90
2018-12-04T04:06:07.383Z,5.90
2018-12-04T04:08:36.849Z,5.90
2018-12-04T04:11:06.649Z,5.90
2018-12-04T04:13:35.714Z,5.90
2018-12-04T04:16:05.016Z,5.90
2018-12-04T04:18:34.401Z,5.90
2018-12-04T04:21:03.383Z,5.90
2018-12-04T04:23:32.092Z,6.00
2018-12-04T04:26:01.851Z,5.90
2018-12-04T04:28:30.501Z,6.00
2018-12-04T04:30:59.566Z,6.00
2018-12-04T04:33:29.050Z,6.00
2018-12-04T04:35:59.235Z,6.10
2018-12-04T04:38:27.906Z,6.10
2018-12-04T04:40:56.413Z,6.10
2018-12-04T04:43:25.221Z,6.10
2018-12-04T04:45:53.726Z,6.10
2018-12-04T04:48:22.288Z,6.20
2018-12-04T04:50:50.845Z,6.20
2018-12-04T04:53:19.544Z,6.20
2018-12-04T04:55:48.122Z,6.20
2018-12-04T04:58:16.649Z,6.20
2018-12-04T05:00:46.827Z,6.20
2018-12-04T05:03:38.323Z,6.20
2018-12-04T05:06:06.976Z,6.20
2018-12-04T05:08:37.159Z,6.20
2018-12-04T05:11:05.965Z,6.30
2018-12-04T05:13:34.678Z,6.30
2018-12-04T05:16:03.518Z,6.30
2018-12-04T05:18:32.266Z,6.30
2018-12-04T05:21:01.323Z,6.30
2018-12-04T05:23:30.094Z,6.30
2018-12-04T05:25:59.020Z,6.30
2018-12-04T05:28:27.597Z,6.30
2018-12-04T05:30:56.069Z,6.20
2018-12-04T05:33:25.241Z,6.20
2018-12-04T05:35:53.805Z,6.20
2018-12-04T05:38:22.286Z,6.20
2018-12-04T05:40:50.973Z,6.30
2018-12-04T05:43:19.639Z,6.20
2018-12-04T05:45:48.362Z,6.30
2018-12-04T05:48:18.900Z,6.30
2018-12-04T05:50:47.400Z,6.20
2018-12-04T05:53:31.142Z,6.20
2018-12-04T05:55:59.657Z,6.20
2018-12-04T05:58:30.444Z,6.20
2018-12-04T06:00:58.926Z,6.20
2018-12-04T06:03:29.518Z,6.20
2018-12-04T06:05:57.999Z,6.20
2018-12-04T06:08:26.544Z,6.20
2018-12-04T06:10:55.215Z,6.20
2018-12-04T06:13:23.792Z,6.20
2018-12-04T06:15:52.308Z,6.20
2018-12-04T06:18:20.817Z,6.20
2018-12-04T06:20:49.311Z,6.20
2018-12-04T06:23:17.905Z,6.20
2018-12-04T06:25:46.433Z,6.20
2018-12-04T06:28:15.023Z,6.20
2018-12-04T06:30:43.619Z,6.20
2018-12-04T06:33:12.561Z,6.20
2018-12-04T06:35:43.120Z,6.20
2018-12-04T06:38:11.688Z,6.20
2018-12-04T06:40:40.437Z,6.20
2018-12-04T06:43:08.916Z,6.20
2018-12-04T06:45:37.379Z,6.20
2018-12-04T06:48:05.878Z,6.20
2018-12-04T06:50:34.431Z,6.20
2018-12-04T06:53:02.996Z,6.20
2018-12-04T06:55:31.511Z,6.20
2018-12-04T06:57:59.984Z,6.20
2018-12-04T07:00:28.515Z,6.30
2018-12-04T07:02:57.037Z,6.30
2018-12-04T07:05:25.550Z,6.30
2018-12-04T07:07:54.243Z,6.30
2018-12-04T07:10:22.767Z,6.30
2018-12-04T07:12:51.435Z,6.30
2018-12-04T07:15:19.934Z,6.30
2018-12-04T07:17:48.679Z,6.30
2018-12-04T07:20:17.269Z,6.30
2018-12-04T07:22:45.946Z,6.30
2018-12-04T07:25:14.489Z,6.30
2018-12-04T07:27:43.007Z,6.30
2018-12-04T07:30:11.683Z,6.30
2018-12-04T07:32:40.284Z,6.30
2018-12-04T07:35:09.700Z,6.30
2018-12-04T07:37:38.166Z,6.30
2018-12-04T07:40:07.567Z,6.30
2018-12-04T07:42:36.201Z,6.30
2018-12-04T07:45:05.948Z,6.30
2018-12-04T07:47:34.673Z,6.30
2018-12-04T07:50:03.357Z,6.30
2018-12-04T07:52:31.823Z,6.30
2018-12-04T07:55:00.312Z,6.30
2018-12-04T07:57:28.793Z,6.30
2018-12-04T07:59:57.423Z,6.20
2018-12-04T08:02:25.933Z,6.30
2018-12-04T08:04:54.463Z,6.20
2018-12-04T08:07:23.322Z,6.20
2018-12-04T08:09:51.805Z,6.20
2018-12-04T08:12:20.363Z,6.20
2018-12-04T08:14:48.956Z,6.30
2018-12-04T08:17:17.660Z,6.30
2018-12-04T08:19:46.209Z,6.30
2018-12-04T08:22:14.824Z,6.30
2018-12-04T08:24:43.417Z,6.30
2018-12-04T08:27:15.179Z,6.40
2018-12-04T08:29:43.630Z,6.50
2018-12-04T08:32:12.101Z,6.50
2018-12-04T08:34:40.547Z,6.60
2018-12-04T08:37:09.044Z,6.70
2018-12-04T08:39:37.569Z,6.80
2018-12-04T08:42:06.434Z,6.80
2018-12-04T08:44:35.117Z,6.90
2018-12-04T08:47:03.636Z,7.00
2018-12-04T08:49:32.110Z,7.00
2018-12-04T08:52:00.724Z,7.00
2018-12-04T08:54:29.192Z,7.10
2018-12-04T08:56:57.700Z,7.10
2018-12-04T08:59:26.172Z,7.20
2018-12-04T09:01:54.670Z,7.20
2018-12-04T09:04:23.166Z,7.20
2018-12-04T09:06:51.715Z,7.30
2018-12-04T09:09:20.236Z,7.30
2018-12-04T09:11:48.811Z,7.40
2018-12-04T09:14:17.368Z,7.40
2018-12-04T09:16:46.898Z,7.40
2018-12-04T09:19:15.520Z,7.50
2018-12-04T09:21:44.111Z,7.60
2018-12-04T09:24:12.895Z,7.60
2018-12-04T09:26:41.598Z,7.60
2018-12-04T09:29:10.196Z,7.60
2018-12-04T09:31:38.917Z,7.60
2018-12-04T09:34:07.688Z,7.60
2018-12-04T09:36:36.171Z,7.60
2018-12-04T09:39:07.770Z,7.60
2018-12-04T09:41:36.964Z,7.60
2018-12-04T09:44:06.775Z,7.60
2018-12-04T09:46:35.378Z,7.60
2018-12-04T09:49:03.917Z,7.60
2018-12-04T09:51:32.555Z,7.60
2018-12-04T09:54:01.036Z,7.60
2018-12-04T09:56:30.328Z,7.60
2018-12-04T09:58:58.816Z,7.60
2018-12-04T10:01:27.312Z,7.60
2018-12-04T10:03:55.810Z,7.60
2018-12-04T10:06:24.295Z,7.60
2018-12-04T10:08:52.905Z,7.60
2018-12-04T10:11:21.505Z,7.60
2018-12-04T10:13:49.987Z,7.60
2018-12-04T10:16:18.706Z,7.60
2018-12-04T10:18:47.812Z,7.60
2018-12-04T10:21:22.393Z,7.70
2018-12-04T10:23:52.768Z,7.70
2018-12-04T10:26:21.287Z,7.70
2018-12-04T10:28:49.881Z,7.60
2018-12-04T10:31:18.677Z,7.60
2018-12-04T10:33:47.171Z,7.70
2018-12-04T10:36:15.653Z,7.60
2018-12-04T10:38:44.211Z,7.70
2018-12-04T10:41:12.679Z,7.70
2018-12-04T10:43:41.324Z,7.70
2018-12-04T10:46:09.839Z,7.60
2018-12-04T10:48:38.527Z,7.60
2018-12-04T10:51:07.126Z,7.60
2018-12-04T10:53:36.524Z,7.60
2018-12-04T10:56:05.143Z,7.60
2018-12-04T10:58:39.009Z,7.60
2018-12-04T11:01:12.837Z,7.60
2018-12-04T11:03:41.327Z,7.60
2018-12-04T11:06:10.386Z,7.60
2018-12-04T11:08:38.880Z,7.70
2018-12-04T11:11:07.378Z,7.60
2018-12-04T11:13:36.245Z,7.70
2018-12-04T11:16:04.743Z,7.70
2018-12-04T11:18:33.306Z,7.70
2018-12-04T11:21:01.976Z,7.70
2018-12-04T11:23:30.524Z,7.70
2018-12-04T11:25:59.024Z,7.70
2018-12-04T11:28:27.577Z,7.70
2018-12-04T11:30:56.214Z,7.70
2018-12-04T11:33:34.644Z,7.70
2018-12-04T11:36:03.289Z,7.70
2018-12-04T11:38:32.037Z,7.70
2018-12-04T11:41:00.539Z,7.70
2018-12-04T11:43:29.093Z,7.70
2018-12-04T11:45:57.617Z,7.70
2018-12-04T11:48:26.257Z,7.70
2018-12-04T11:51:00.042Z,7.70
2018-12-04T11:53:25.464Z,7.60
2018-12-04T11:55:54.027Z,7.60
2018-12-04T11:58:22.782Z,7.60
2018-12-04T12:00:51.306Z,7.60
2018-12-04T12:03:19.934Z,7.60
2018-12-04T12:05:48.415Z,7.60
2018-12-04T12:08:16.924Z,7.70
2018-12-04T12:10:45.436Z,7.60
2018-12-04T12:13:14.087Z,7.70
2018-12-04T12:15:42.548Z,7.70
2018-12-04T12:18:11.070Z,7.70
2018-12-04T12:20:39.608Z,7.70
2018-12-04T12:23:08.092Z,7.70
2018-12-04T12:25:36.898Z,7.70
2018-12-04T12:28:06.355Z,7.70
2018-12-04T12:30:35.019Z,7.70
2018-12-04T12:33:03.707Z,7.70
2018-12-04T12:35:32.223Z,7.70
2018-12-04T12:38:00.708Z,7.60
2018-12-04T12:40:29.255Z,7.60
2018-12-04T12:42:57.987Z,7.60
2018-12-04T12:45:26.531Z,7.60
2018-12-04T12:47:55.228Z,7.60
2018-12-04T12:50:24.042Z,7.60
2018-12-04T12:52:52.571Z,7.60
2018-12-04T12:55:21.234Z,7.60
2018-12-04T12:57:51.266Z,7.60
2018-12-04T13:00:20.136Z,7.60
2018-12-04T13:02:48.627Z,7.60
2018-12-04T13:05:17.142Z,7.60
2018-12-04T13:07:45.705Z,7.60
2018-12-04T13:10:14.257Z,7.60
2018-12-04T13:12:42.800Z,7.60
2018-12-04T13:15:11.333Z,7.60
2018-12-04T13:17:39.811Z,7.60
2018-12-04T13:20:08.451Z,7.60
2018-12-04T13:22:37.022Z,7.60
2018-12-04T13:25:06.927Z,7.60
2018-12-04T13:27:35.415Z,7.60
2018-12-04T13:30:04.962Z,7.60
2018-12-04T13:32:33.574Z,7.60
2018-12-04T13:35:02.109Z,7.60
2018-12-04T13:37:30.609Z,7.60
2018-12-04T13:39:59.151Z,7.50
2018-12-04T13:42:27.670Z,7.50
2018-12-04T13:44:56.290Z,7.50
2018-12-04T13:47:24.873Z,7.50
2018-12-04T13:49:54.229Z,7.50
2018-12-04T13:52:22.697Z,7.50
2018-12-04T13:54:51.168Z,7.50
2018-12-04T13:57:19.637Z,7.50
2018-12-04T13:59:49.192Z,7.50
2018-12-04T14:02:17.697Z,7.50
2018-12-04T14:04:46.211Z,7.50
2018-12-04T14:07:14.845Z,7.40
2018-12-04T14:09:43.308Z,7.50
2018-12-04T14:12:11.960Z,7.40
2018-12-04T14:14:40.507Z,7.40
2018-12-04T14:17:09.013Z,7.30
2018-12-04T14:19:37.488Z,7.30
2018-12-04T14:22:06.191Z,7.20
2018-12-04T14:24:34.704Z,7.20
2018-12-04T14:27:03.329Z,7.10
2018-12-04T14:29:31.804Z,7.10
2018-12-04T14:32:00.304Z,7.10
2018-12-04T14:34:29.870Z,7.00
2018-12-04T14:36:59.461Z,6.90
2018-12-04T14:39:28.126Z,6.90
2018-12-04T14:41:56.628Z,6.90
2018-12-04T14:44:25.491Z,6.90
2018-12-04T14:46:54.286Z,6.80
2018-12-04T14:49:22.897Z,6.80
2018-12-04T14:51:51.417Z,6.80
2018-12-04T14:54:19.993Z,6.80
2018-12-04T14:56:48.739Z,6.70
2018-12-04T14:59:17.348Z,6.70
2018-12-04T15:01:45.830Z,6.70
2018-12-04T15:04:14.322Z,6.70
2018-12-04T15:06:42.798Z,6.70
2018-12-04T15:09:11.404Z,6.70
2018-12-04T15:11:40.114Z,6.60
2018-12-04T15:14:08.673Z,6.60
2018-12-04T15:16:37.382Z,6.60
2018-12-04T15:19:05.969Z,6.50
2018-12-04T15:21:34.571Z,6.50
2018-12-04T15:24:03.149Z,6.50
2018-12-04T15:26:31.752Z,6.40
2018-12-04T15:29:00.267Z,6.40
2018-12-04T15:31:29.179Z,6.40
2018-12-04T15:33:57.693Z,6.40
2018-12-04T15:36:26.613Z,6.40
2018-12-04T15:38:55.244Z,6.40
2018-12-04T15:41:23.776Z,6.40
2018-12-04T15:43:52.323Z,6.40
2018-12-04T15:46:20.903Z,6.40
2018-12-04T15:48:49.958Z,6.40
2018-12-04T15:51:18.432Z,6.40
2018-12-04T15:53:47.006Z,6.30
2018-12-04T15:56:15.854Z,6.30
2018-12-04T15:58:44.378Z,6.30
2018-12-04T16:01:13.259Z,6.30
2018-12-04T16:03:41.754Z,6.30
2018-12-04T16:06:10.426Z,6.30
2018-12-04T16:08:39.373Z,6.30
2018-12-04T16:11:08.005Z,6.20
2018-12-04T16:13:36.517Z,6.20
2018-12-04T16:16:05.641Z,6.20
2018-12-04T16:18:34.124Z,6.20
2018-12-04T16:21:02.584Z,6.10
2018-12-04T16:23:31.079Z,6.10
2018-12-04T16:25:59.991Z,6.10
2018-12-04T16:28:28.765Z,6.10
2018-12-04T16:30:57.375Z,6.10
2018-12-04T16:33:25.942Z,6.00
2018-12-04T16:35:54.691Z,6.00
2018-12-04T16:38:23.157Z,5.90
2018-12-04T16:40:54.414Z,5.90
2018-12-04T16:43:22.967Z,5.90
2018-12-04T16:45:51.703Z,5.80
2018-12-04T16:48:21.101Z,5.80
2018-12-04T16:50:49.722Z,5.80
2018-12-04T16:53:18.221Z,5.70
2018-12-04T16:55:46.664Z,5.70
2018-12-04T16:58:15.257Z,5.70
2018-12-04T17:00:44.182Z,5.70
2018-12-04T17:03:12.669Z,5.60
2018-12-04T17:05:41.144Z,5.60
2018-12-04T17:08:09.652Z,5.60
2018-12-04T17:10:38.152Z,5.50
2018-12-04T17:13:06.666Z,5.50
2018-12-04T17:15:35.252Z,5.50
2018-12-04T17:18:03.732Z,5.50
2018-12-04T17:20:32.572Z,5.50
2018-12-04T17:23:01.086Z,5.50
2018-12-04T17:25:29.605Z,5.50
2018-12-04T17:27:58.153Z,5.50
2018-12-04T17:30:26.961Z,5.50
2018-12-04T17:32:55.815Z,5.50
2018-12-04T17:35:24.318Z,5.50
2018-12-04T17:37:52.851Z,5.50
2018-12-04T17:40:22.112Z,5.40
2018-12-04T17:42:50.699Z,5.40
2018-12-04T17:45:19.367Z,5.40
2018-12-04T17:47:47.883Z,5.30
2018-12-04T17:50:16.391Z,5.30
2018-12-04T17:52:44.944Z,5.30
2018-12-04T17:55:13.548Z,5.30
2018-12-04T17:57:42.053Z,5.20
2018-12-04T18:00:12.678Z,5.20
2018-12-04T18:02:41.148Z,5.20
2018-12-04T18:05:09.948Z,5.10
2018-12-04T18:07:38.510Z,5.00
2018-12-04T18:10:08.457Z,4.90
2018-12-04T18:12:37.345Z,4.80
2018-12-04T18:15:07.154Z,4.80
2018-12-04T18:17:35.645Z,4.70
2018-12-04T18:20:04.864Z,4.70
2018-12-04T18:22:33.624Z,4.60
2018-12-04T18:25:02.240Z,4.60
2018-12-04T18:27:30.715Z,4.70
2018-12-04T18:29:59.274Z,4.60
2018-12-04T18:32:27.886Z,4.60
2018-12-04T18:34:56.492Z,4.60
2018-12-04T18:37:25.042Z,4.50
2018-12-04T18:39:53.644Z,4.50
2018-12-04T18:42:22.136Z,4.50
2018-12-04T18:44:50.654Z,4.40
2018-12-04T18:47:19.916Z,4.30
2018-12-04T18:49:48.402Z,4.20
2018-12-04T18:52:16.988Z,4.20
2018-12-04T18:54:45.496Z,4.20
2018-12-04T18:57:14.713Z,4.10
2018-12-04T18:59:43.402Z,4.10
2018-12-04T19:02:11.885Z,4.10
2018-12-04T19:04:41.216Z,4.10
2018-12-04T19:07:10.200Z,4.10
2018-12-04T19:09:39.409Z,4.00
2018-12-04T19:12:08.365Z,4.00
2018-12-04T19:14:37.293Z,3.90
2018-12-04T19:17:06.527Z,3.90
2018-12-04T19:19:35.346Z,3.90
2018-12-04T19:22:10.174Z,3.80
2018-12-04T19:24:38.959Z,3.80
2018-12-04T19:27:08.428Z,3.80
2018-12-04T19:29:37.320Z,3.80
2018-12-04T19:32:05.897Z,3.80
2018-12-04T19:34:34.679Z,3.80
2018-12-04T19:37:03.399Z,3.70
2018-12-04T19:39:31.964Z,3.60
2018-12-04T19:42:00.546Z,3.70
2018-12-04T19:44:29.130Z,3.70
2018-12-04T19:46:58.064Z,3.60
2018-12-04T19:49:26.694Z,3.60
2018-12-04T19:51:55.677Z,3.60
2018-12-04T19:54:24.610Z,3.60
2018-12-04T19:56:55.324Z,3.60
2018-12-04T19:59:24.792Z,3.70
2018-12-04T20:01:53.376Z,3.70
2018-12-04T20:04:22.056Z,3.60
2018-12-04T20:06:50.620Z,3.60
2018-12-04T20:09:19.908Z,3.60
2018-12-04T20:11:48.647Z,3.60
2018-12-04T20:14:18.288Z,3.60
2018-12-04T20:16:47.013Z,3.60
2018-12-04T20:19:15.563Z,3.50
2018-12-04T20:21:44.149Z,3.50
2018-12-04T20:24:12.863Z,3.50
2018-12-04T20:26:41.554Z,3.40
2018-12-04T20:29:10.192Z,3.40
2018-12-04T20:31:38.963Z,3.40
2018-12-04T20:34:07.508Z,3.30
2018-12-04T20:36:36.111Z,3.30
2018-12-04T20:39:06.861Z,3.20
2018-12-04T20:41:35.696Z,3.20
2018-12-04T20:44:04.584Z,3.20
2018-12-04T20:46:33.324Z,3.20
2018-12-04T20:49:02.406Z,3.10
2018-12-04T20:51:30.952Z,3.10
2018-12-04T20:54:00.871Z,3.10
2018-12-04T20:56:29.650Z,3.10
2018-12-04T20:58:58.204Z,3.10
2018-12-04T21:01:26.859Z,3.00
2018-12-04T21:03:55.409Z,3.00
2018-12-04T21:06:24.008Z,3.00
2018-12-04T21:08:52.624Z,3.00
2018-12-04T21:11:21.160Z,3.00
2018-12-04T21:13:49.853Z,3.00
2018-12-04T21:16:18.453Z,3.00
2018-12-04T21:18:47.002Z,2.90
2018-12-04T21:21:15.753Z,2.90
2018-12-04T21:23:44.336Z,2.90
2018-12-04T21:26:12.955Z,2.90
2018-12-04T21:28:45.727Z,2.90
2018-12-04T21:31:19.765Z,2.90
2018-12-04T21:33:54.002Z,2.80
2018-12-04T21:36:27.837Z,2.90
2018-12-04T21:39:04.589Z,2.90
2018-12-04T21:41:38.559Z,2.90
2018-12-04T21:44:12.406Z,3.00
2018-12-04T21:46:46.295Z,3.00
2018-12-04T21:49:14.900Z,3.00
2018-12-04T21:51:43.462Z,3.00
2018-12-04T21:54:12.105Z,3.10
2018-12-04T21:56:40.857Z,3.10
2018-12-04T21:59:09.423Z,3.10
2018-12-04T22:01:38.495Z,3.10
2018-12-04T22:04:07.017Z,3.10
2018-12-04T22:06:35.854Z,3.00
2018-12-04T22:09:07.185Z,3.00
2018-12-04T22:11:36.100Z,3.00
2018-12-04T22:14:05.504Z,2.90
2018-12-04T22:16:34.103Z,2.90
2018-12-04T22:19:02.969Z,2.90
2018-12-04T22:21:31.809Z,2.90
2018-12-04T22:24:01.901Z,2.90
2018-12-04T22:26:30.565Z,2.90
2018-12-04T22:28:59.236Z,2.90
2018-12-04T22:31:28.739Z,2.90
2018-12-04T22:33:58.668Z,2.90
2018-12-04T22:36:27.365Z,2.80
2018-12-04T22:38:56.191Z,2.80
2018-12-04T22:41:25.066Z,2.80
2018-12-04T22:43:53.951Z,2.80
2018-12-04T22:46:22.915Z,2.80
2018-12-04T22:48:51.654Z,2.80
2018-12-04T22:54:01.381Z,2.80
2018-12-04T22:56:30.975Z,2.80
2018-12-04T22:58:59.761Z,2.90
2018-12-04T23:01:38.695Z,2.90
2018-12-04T23:04:07.947Z,2.90
2018-12-04T23:06:37.467Z,2.90
2018-12-04T23:09:09.503Z,2.90
2018-12-04T23:11:39.107Z,2.90
2018-12-04T23:14:07.991Z,2.90
2018-12-04T23:16:36.840Z,2.90
2018-12-04T23:19:05.744Z,2.90
2018-12-04T23:21:34.521Z,2.90
2018-12-04T23:24:03.348Z,2.90
2018-12-04T23:26:33.301Z,2.90
2018-12-04T23:29:01.869Z,3.00
2018-12-04T23:31:30.613Z,3.00
2018-12-04T23:33:59.171Z,2.90
2018-12-04T23:36:27.856Z,2.90
2018-12-04T23:38:56.445Z,2.90
2018-12-04T23:41:24.991Z,2.90
2018-12-04T23:43:53.717Z,2.90
2018-12-04T23:46:22.395Z,2.90
2018-12-04T23:48:51.086Z,2.90
2018-12-04T23:51:19.745Z,2.90
2018-12-04T23:53:48.385Z,2.90
2018-12-04T23:56:17.069Z,2.90
2018-12-04T23:58:45.764Z,2.90
